Time;durP1;ratioP1;P1;durP2;ratioP2;P2;SDS_P1;SDS_P2;PMS_P1;PMS_P2;Temp;Humidity;BMP_temperature;BMP_pressure;BME280_temperature;BME280_humidity;BME280_pressure;Samples;Min_cycle;Max_cycle;Signal;HPM_P1;HPM_P2
2022/07/27 00:01:05;;;;;;;8.97;8.57;;;;;;;25.85;64.87;98815.03;5125542;27;20199;-68
2022/07/27 00:03:32;;;;;;;10.07;9.17;;;;;;;25.89;65.04;98815.56;5124258;27;20578;-68
2022/07/27 00:05:59;;;;;;;9.70;9.10;;;;;;;25.86;64.76;98821.94;5131899;27;20674;-68
2022/07/27 00:08:26;;;;;;;10.40;9.50;;;;;;;25.88;64.82;98822.59;5131538;27;20213;-68
2022/07/27 00:10:53;;;;;;;9.50;8.90;;;;;;;25.90;65.62;98827.72;5124552;27;20215;-68
2022/07/27 00:13:21;;;;;;;8.73;8.13;;;;;;;25.92;65.35;98825.75;5129256;27;20210;-68
2022/07/27 00:15:48;;;;;;;9.00;8.37;;;;;;;25.94;65.57;98832.50;5129835;27;20652;-67
2022/07/27 00:18:15;;;;;;;9.93;9.33;;;;;;;25.97;66.01;98834.81;5129189;27;20205;-68
2022/07/27 00:20:42;;;;;;;8.90;8.43;;;;;;;25.98;66.14;98841.69;5129285;27;20206;-68
2022/07/27 00:23:09;;;;;;;9.70;9.07;;;;;;;25.94;66.35;98839.56;5120070;27;20205;-68
2022/07/27 00:25:36;;;;;;;10.03;9.53;;;;;;;25.90;66.64;98832.97;5123450;27;20198;-68
2022/07/27 00:28:03;;;;;;;10.37;9.70;;;;;;;25.79;67.46;98828.81;5122762;27;20254;-68
2022/07/27 00:30:32;;;;;;;10.80;9.70;;;;;;;25.69;67.15;98833.34;5125432;27;20581;-68
2022/07/27 00:32:59;;;;;;;9.20;8.60;;;;;;;25.52;67.74;98829.00;5123383;27;20194;-68
2022/07/27 00:35:26;;;;;;;9.73;9.13;;;;;;;25.50;68.08;98836.16;5127859;27;20200;-68
2022/07/27 00:37:53;;;;;;;9.43;8.83;;;;;;;25.51;68.70;98843.06;5128032;27;20221;-67
2022/07/27 00:40:20;;;;;;;9.33;8.63;;;;;;;25.51;68.37;98837.81;5119063;27;20214;-68
2022/07/27 00:42:47;;;;;;;9.27;8.67;;;;;;;25.51;68.77;98837.81;5116557;27;20203;-68
2022/07/27 00:45:13;;;;;;;9.20;8.60;;;;;;;25.51;68.95;98837.81;5120304;27;20204;-68
2022/07/27 00:47:42;;;;;;;9.57;8.67;;;;;;;25.50;68.78;98841.41;5113208;27;20571;-68
2022/07/27 00:50:09;;;;;;;9.67;9.07;;;;;;;25.51;68.97;98849.16;5121742;27;20594;-68
2022/07/27 00:52:37;;;;;;;9.80;9.20;;;;;;;25.48;69.36;98848.59;5131143;27;20198;-68
2022/07/27 00:55:05;;;;;;;9.20;8.60;;;;;;;25.44;68.44;98847.25;5122453;27;20599;-68
2022/07/27 00:57:32;;;;;;;9.93;8.97;;;;;;;25.44;69.00;98847.25;5130673;27;20190;-68
2022/07/27 00:59:59;;;;;;;9.57;8.90;;;;;;;25.46;68.93;98842.69;5131197;27;20194;-68
2022/07/27 01:02:26;;;;;;;8.63;8.13;;;;;;;25.45;68.81;98843.66;5129183;27;20213;-68
2022/07/27 01:04:54;;;;;;;9.27;8.57;;;;;;;25.44;68.13;98842.00;5118619;27;20614;-68
2022/07/27 01:07:22;;;;;;;8.77;8.27;;;;;;;25.41;68.04;98840.53;5120896;27;21447;-68
2022/07/27 01:09:58;;;;;;;9.57;8.70;;;;;;;25.40;68.23;98838.03;5125869;27;20222;-68
2022/07/27 01:12:27;;;;;;;9.27;8.70;;;;;;;25.25;68.09;98822.03;5117655;28;20204;-68
2022/07/27 01:14:56;;;;;;;9.60;8.80;;;;;;;25.32;68.21;98845.88;5116134;28;20698;-68
2022/07/27 01:17:24;;;;;;;9.87;9.13;;;;;;;25.29;68.82;98841.75;5123844;28;20220;-68
2022/07/27 01:19:51;;;;;;;9.43;8.90;;;;;;;25.26;68.90;98838.59;5119529;28;20252;-68
2022/07/27 01:22:19;;;;;;;10.73;9.77;;;;;;;25.22;69.18;98835.47;5116114;28;20206;-67
2022/07/27 01:24:47;;;;;;;10.57;9.87;;;;;;;25.25;69.33;98850.06;5118391;28;20202;-68
2022/07/27 01:27:14;;;;;;;9.77;8.80;;;;;;;25.23;68.96;98849.41;5120935;28;20237;-68
2022/07/27 01:29:41;;;;;;;10.27;9.30;;;;;;;25.18;68.95;98852.47;5118145;27;20222;-68
2022/07/27 01:32:08;;;;;;;10.10;9.30;;;;;;;25.20;68.87;98849.72;5128022;28;20254;-68
2022/07/27 01:34:35;;;;;;;9.57;8.97;;;;;;;25.17;68.67;98852.63;5124177;27;20251;-68
2022/07/27 01:37:02;;;;;;;8.73;8.27;;;;;;;25.14;68.62;98855.56;5125764;27;20598;-67
2022/07/27 01:39:32;;;;;;;11.30;10.57;;;;;;;25.12;68.82;98841.75;5117356;28;20205;-68
2022/07/27 01:41:59;;;;;;;10.87;10.13;;;;;;;24.97;68.85;98833.63;5124232;28;20199;-68
2022/07/27 01:44:26;;;;;;;10.20;9.60;;;;;;;25.05;68.87;98847.63;5116730;28;20198;-68
2022/07/27 01:46:53;;;;;;;12.27;11.27;;;;;;;24.99;69.36;98848.22;5130973;28;20638;-68
2022/07/27 01:49:20;;;;;;;10.27;9.57;;;;;;;24.92;69.23;98847.16;5126843;28;20206;-67
2022/07/27 01:51:47;;;;;;;10.37;9.67;;;;;;;24.90;69.31;98849.13;5126064;28;20590;-68
2022/07/27 01:54:14;;;;;;;10.83;9.83;;;;;;;24.91;70.15;98849.97;5116580;28;20226;-68
2022/07/27 01:56:42;;;;;;;10.17;9.47;;;;;;;24.90;70.15;98854.38;5127158;28;20206;-68
2022/07/27 01:59:09;;;;;;;10.07;9.47;;;;;;;24.87;69.38;98846.81;5119152;28;20198;-68
2022/07/27 02:01:36;;;;;;;9.10;8.53;;;;;;;24.84;69.70;98846.28;5128996;27;20194;-68
2022/07/27 02:04:03;;;;;;;10.53;9.87;;;;;;;24.81;69.74;98850.00;5128195;28;20202;-67
2022/07/27 02:06:30;;;;;;;10.67;9.80;;;;;;;24.75;69.29;98845.31;5128883;27;20190;-68
2022/07/27 02:08:56;;;;;;;11.03;10.03;;;;;;;24.68;69.51;98844.31;5128861;28;20194;-68
2022/07/27 02:14:09;;;;;;;10.10;9.57;;;;;;;24.60;70.16;98841.56;5123581;28;20209;-68
2022/07/27 02:16:36;;;;;;;11.43;10.63;;;;;;;24.53;70.09;98848.38;5115418;28;20194;-68
2022/07/27 02:19:03;;;;;;;11.10;10.30;;;;;;;24.45;70.41;98848.31;5120287;27;20252;-67
2022/07/27 02:21:30;;;;;;;11.30;10.50;;;;;;;24.43;71.02;98848.44;5129276;27;20285;-68
2022/07/27 02:23:56;;;;;;;11.93;11.00;;;;;;;24.42;71.52;98838.94;5131034;27;20198;-68
2022/07/27 02:26:23;;;;;;;11.70;10.80;;;;;;;24.42;71.39;98844.19;5122021;27;20205;-68
2022/07/27 02:28:50;;;;;;;12.43;11.50;;;;;;;24.38;71.03;98836.75;5117725;27;20191;-68
2022/07/27 02:31:18;;;;;;;12.47;11.47;;;;;;;24.38;71.51;98847.22;5123429;27;20225;-68
2022/07/27 02:33:45;;;;;;;12.43;11.27;;;;;;;24.38;71.49;98857.72;5126608;27;20275;-68
2022/07/27 02:36:12;;;;;;;12.03;11.17;;;;;;;24.35;71.33;98852.78;5125374;27;20198;-67
2022/07/27 02:38:39;;;;;;;11.63;10.57;;;;;;;24.26;72.25;98837.94;5126804;27;20807;-67
2022/07/27 02:41:05;;;;;;;12.60;10.93;;;;;;;24.34;72.76;98858.97;5126584;27;20206;-67
2022/07/27 02:43:32;;;;;;;12.07;11.17;;;;;;;24.32;72.57;98858.31;5115702;27;20218;-67
2022/07/27 02:45:59;;;;;;;11.53;10.63;;;;;;;24.23;72.39;98843.47;5115673;27;20214;-67
2022/07/27 02:48:27;;;;;;;11.67;10.90;;;;;;;24.16;72.91;98832.75;5129217;27;20202;-68
2022/07/27 02:50:54;;;;;;;11.90;11.00;;;;;;;24.23;71.77;98860.00;5127201;27;20598;-67
2022/07/27 02:53:21;;;;;;;11.63;10.63;;;;;;;24.12;72.83;98861.97;5114429;27;20191;-68
2022/07/27 02:55:47;;;;;;;11.87;10.63;;;;;;;24.02;73.37;98852.34;5113924;27;20226;-67
2022/07/27 02:58:14;;;;;;;12.13;11.13;;;;;;;24.05;73.25;98862.53;5130967;27;20190;-68
2022/07/27 03:00:41;;;;;;;11.93;10.83;;;;;;;24.04;73.35;98867.88;5133039;27;20186;-67
2022/07/27 03:03:08;;;;;;;11.17;10.17;;;;;;;23.99;73.04;98870.97;5123222;27;20225;-67
2022/07/27 03:05:36;;;;;;;11.70;10.60;;;;;;;23.97;74.11;98865.03;5133179;27;20198;-67
2022/07/27 03:08:03;;;;;;;12.50;11.47;;;;;;;23.81;73.82;98846.47;5132631;27;20205;-67
2022/07/27 03:10:31;;;;;;;11.90;10.90;;;;;;;23.90;74.00;98871.00;5132913;27;20210;-67
2022/07/27 03:12:58;;;;;;;11.87;10.47;;;;;;;23.87;73.78;98864.25;5127442;27;20237;-67
2022/07/27 03:15:25;;;;;;;11.47;10.63;;;;;;;23.82;74.05;98876.94;5114130;27;20666;-68
2022/07/27 03:17:51;;;;;;;11.87;10.97;;;;;;;23.76;73.74;98877.50;5113955;27;20206;-67
2022/07/27 03:20:18;;;;;;;11.97;11.03;;;;;;;23.74;74.29;98887.31;5113914;27;20195;-67
2022/07/27 03:22:46;;;;;;;12.10;11.27;;;;;;;23.73;74.64;98884.81;5114230;27;20617;-67
2022/07/27 03:25:13;;;;;;;12.00;11.13;;;;;;;23.69;74.55;98886.88;5114939;27;20199;-68
2022/07/27 03:27:40;;;;;;;11.50;10.73;;;;;;;23.63;74.46;98887.44;5114460;27;20210;-67
2022/07/27 03:30:09;;;;;;;11.40;10.40;;;;;;;23.55;74.58;98878.66;5117537;27;20226;-67
2022/07/27 03:32:35;;;;;;;10.27;9.53;;;;;;;23.59;74.92;98896.53;5123882;27;20217;-65
2022/07/27 03:35:02;;;;;;;11.30;10.40;;;;;;;23.57;76.00;98897.66;5119313;27;20198;-65
2022/07/27 03:37:29;;;;;;;10.77;9.77;;;;;;;23.56;75.53;98896.81;5121866;27;20198;-65
2022/07/27 03:39:57;;;;;;;10.47;9.67;;;;;;;23.59;76.45;98891.31;5117345;27;20248;-66
2022/07/27 03:42:24;;;;;;;11.03;10.03;;;;;;;23.62;76.65;98896.25;5123380;27;20194;-65
2022/07/27 03:44:52;;;;;;;10.30;9.57;;;;;;;23.64;76.99;98899.59;5122726;27;20198;-65
2022/07/27 03:47:19;;;;;;;9.80;9.10;;;;;;;23.69;77.41;98901.75;5125293;27;20698;-65
2022/07/27 03:49:47;;;;;;;11.00;10.13;;;;;;;23.73;76.33;98905.75;5116926;27;20199;-65
2022/07/27 03:52:14;;;;;;;10.47;9.60;;;;;;;23.79;76.91;98908.63;5120073;27;20711;-65
2022/07/27 03:54:41;;;;;;;10.77;9.80;;;;;;;23.81;75.92;98901.44;5117944;27;20280;-65
2022/07/27 03:57:09;;;;;;;9.90;9.20;;;;;;;23.91;76.15;98907.50;5125964;27;20206;-65
2022/07/27 03:59:36;;;;;;;10.47;9.77;;;;;;;23.98;76.09;98911.19;5123016;27;20198;-65
2022/07/27 04:02:03;;;;;;;11.97;9.47;;;;;;;24.07;75.59;98912.16;5127953;27;20202;-65
2022/07/27 04:04:30;;;;;;;9.87;9.17;;;;;;;24.10;75.71;98897.94;5126223;27;20271;-65
2022/07/27 04:06:57;;;;;;;9.10;8.60;;;;;;;24.25;75.31;98912.25;5128234;27;20582;-65
2022/07/27 04:09:24;;;;;;;10.37;9.40;;;;;;;24.36;75.37;98917.31;5121947;27;20202;-65
2022/07/27 04:11:51;;;;;;;10.63;9.83;;;;;;;24.47;74.86;98917.09;5118149;27;20713;-66
2022/07/27 04:14:19;;;;;;;11.23;10.23;;;;;;;24.59;74.84;98921.16;5124854;27;20194;-65
2022/07/27 04:16:47;;;;;;;9.77;8.97;;;;;;;24.73;74.22;98931.16;5125980;27;20214;-65
2022/07/27 04:19:13;;;;;;;10.23;9.37;;;;;;;24.77;74.13;98932.53;5120945;27;20634;-65
2022/07/27 04:21:40;;;;;;;9.97;9.10;;;;;;;24.83;75.10;98937.22;5120720;27;20190;-66
2022/07/27 04:24:07;;;;;;;11.77;9.83;;;;;;;24.94;74.26;98937.00;5112649;27;20354;-65
2022/07/27 04:26:35;;;;;;;10.37;9.77;;;;;;;25.02;73.58;98942.34;5120160;27;20206;-65
2022/07/27 04:29:02;;;;;;;10.63;9.80;;;;;;;25.11;74.34;98939.78;5122805;27;20581;-65
2022/07/27 04:31:30;;;;;;;10.17;9.47;;;;;;;25.14;74.91;98931.63;5124743;27;20226;-65
2022/07/27 04:33:57;;;;;;;12.47;11.23;;;;;;;25.32;75.90;98938.53;5117934;27;20203;-65
2022/07/27 04:36:24;;;;;;;11.57;10.57;;;;;;;25.48;73.80;98940.47;5122442;27;20574;-65
2022/07/27 04:38:51;;;;;;;12.97;10.80;;;;;;;25.63;73.79;98940.75;5124157;27;20191;-65
2022/07/27 04:41:17;;;;;;;10.67;9.77;;;;;;;25.81;71.17;98944.19;5122761;27;20578;-65
2022/07/27 04:43:44;;;;;;;10.50;9.70;;;;;;;25.94;72.20;98944.63;5122007;27;20190;-66
2022/07/27 04:46:13;;;;;;;9.67;8.97;;;;;;;26.06;71.40;98941.56;5121597;27;20632;-66
2022/07/27 04:48:42;;;;;;;10.50;9.67;;;;;;;26.25;71.57;98944.97;5117968;27;20263;-66
2022/07/27 04:51:13;;;;;;;12.60;11.40;;;;;;;26.51;70.97;98956.28;5116662;27;20214;-66
2022/07/27 04:53:40;;;;;;;9.53;8.87;;;;;;;26.65;69.97;98958.31;5126345;27;20208;-65
2022/07/27 04:56:07;;;;;;;9.43;8.83;;;;;;;26.83;69.68;98964.34;5118752;27;20198;-66
2022/07/27 04:58:34;;;;;;;9.40;8.80;;;;;;;27.00;68.58;98955.50;5125597;27;20631;-65
2022/07/27 05:01:01;;;;;;;10.07;9.17;;;;;;;27.13;67.55;98969.03;5129523;27;20194;-66
2022/07/27 05:03:28;;;;;;;9.07;8.57;;;;;;;27.29;67.34;98975.28;5122161;27;20193;-65
2022/07/27 05:05:56;;;;;;;9.90;9.20;;;;;;;27.36;68.22;98955.25;5118084;27;20203;-66
2022/07/27 05:08:23;;;;;;;8.67;8.17;;;;;;;27.56;67.75;98956.59;5112026;27;20206;-66
2022/07/27 05:10:50;;;;;;;9.73;9.03;;;;;;;27.76;67.10;98963.16;5116723;27;20217;-66
2022/07/27 05:13:17;;;;;;;8.93;8.33;;;;;;;27.92;66.00;98965.78;5114391;27;20578;-66
2022/07/27 05:15:43;;;;;;;9.07;8.47;;;;;;;28.08;64.87;98963.16;5130594;27;20201;-65
2022/07/27 05:18:10;;;;;;;9.90;9.13;;;;;;;28.22;63.94;98969.56;5119840;28;20206;-66
2022/07/27 05:20:37;;;;;;;8.30;7.73;;;;;;;28.33;63.28;98971.84;5124221;27;20206;-66
2022/07/27 05:23:05;;;;;;;8.60;8.00;;;;;;;28.52;63.66;98981.16;5123692;28;20194;-66
2022/07/27 05:25:32;;;;;;;8.30;7.60;;;;;;;28.68;62.09;98975.88;5122969;27;20212;-66
2022/07/27 05:27:59;;;;;;;8.27;7.63;;;;;;;28.90;60.11;98977.72;5123129;27;20202;-66
2022/07/27 05:30:26;;;;;;;8.37;7.77;;;;;;;29.00;58.56;98980.16;5123835;27;20712;-65
2022/07/27 05:32:53;;;;;;;9.03;8.33;;;;;;;29.14;60.53;98982.88;5123712;28;20197;-66
2022/07/27 05:35:20;;;;;;;8.50;7.72;;;;;;;29.36;60.96;98986.56;5124304;28;20298;-66
2022/07/27 05:37:47;;;;;;;8.60;7.80;;;;;;;29.58;60.16;98987.56;5121245;28;20211;-66
2022/07/27 05:40:15;;;;;;;8.45;7.70;;;;;;;29.78;60.21;98991.38;5120163;28;20205;-66
2022/07/27 05:42:43;;;;;;;8.10;7.70;;;;;;;29.95;57.22;98981.50;5117479;28;20464;-65
2022/07/27 05:45:11;;;;;;;8.40;7.75;;;;;;;30.11;56.95;98986.63;5123231;28;20198;-66
2022/07/27 05:47:38;;;;;;;8.75;8.07;;;;;;;30.17;57.69;98981.44;5118477;28;20582;-66
2022/07/27 05:50:06;;;;;;;8.57;7.97;;;;;;;30.33;59.07;98979.63;5116256;28;20202;-66
2022/07/27 05:52:33;;;;;;;8.18;7.57;;;;;;;30.53;56.18;98996.63;5119640;28;20215;-66
2022/07/27 05:55:00;;;;;;;8.85;7.93;;;;;;;30.62;54.04;98998.16;5117538;27;20963;-65
2022/07/27 05:57:28;;;;;;;8.65;8.02;;;;;;;30.70;52.67;98987.47;5122057;27;20563;-65
2022/07/27 05:59:57;;;;;;;8.57;7.97;;;;;;;30.79;51.60;98996.97;5119220;27;20260;-65
2022/07/27 06:02:26;;;;;;;8.88;8.10;;;;;;;30.71;51.79;98984.66;5115300;27;20205;-65
2022/07/27 06:04:53;;;;;;;7.45;6.97;;;;;;;30.76;52.10;98978.00;5120157;27;20209;-65
2022/07/27 06:10:05;;;;;;;8.00;7.40;;;;;;;30.97;53.33;98981.53;5126273;27;20197;-65
2022/07/27 06:12:38;;;;;;;10.43;8.50;;;;;;;31.26;54.78;98987.75;5123246;27;20226;-67
2022/07/27 06:15:06;;;;;;;8.23;7.50;;;;;;;31.43;52.62;98989.97;5121434;27;20199;-66
2022/07/27 06:17:33;;;;;;;7.82;7.13;;;;;;;31.64;52.15;98987.34;5119645;27;20224;-66
2022/07/27 06:20:00;;;;;;;8.88;8.05;;;;;;;31.95;51.07;98989.66;5126250;27;20194;-65
2022/07/27 06:22:27;;;;;;;9.25;7.68;;;;;;;32.22;50.42;98983.53;5124356;27;20254;-67
2022/07/27 06:24:54;;;;;;;8.55;7.80;;;;;;;32.35;52.05;98976.66;5122306;27;20206;-66
2022/07/27 06:27:21;;;;;;;8.15;7.72;;;;;;;32.48;50.77;98977.56;5122703;27;20203;-67
2022/07/27 06:29:49;;;;;;;8.85;7.85;;;;;;;32.64;51.09;98979.09;5126851;27;20569;-66
2022/07/27 06:32:16;;;;;;;9.13;8.30;;;;;;;32.83;46.86;98981.00;5123536;27;20315;-69
2022/07/27 06:34:43;;;;;;;8.82;8.10;;;;;;;32.96;47.10;98983.72;5127392;27;20646;-65
2022/07/27 06:37:10;;;;;;;7.70;7.30;;;;;;;33.09;46.19;98978.47;5128484;27;20213;-65
2022/07/27 06:39:37;;;;;;;8.25;7.75;;;;;;;33.28;45.02;98984.06;5125423;27;20198;-66
2022/07/27 06:42:04;;;;;;;7.53;7.13;;;;;;;33.39;45.12;98986.09;5122173;27;20202;-66
2022/07/27 06:44:31;;;;;;;9.13;8.63;;;;;;;33.59;46.15;98986.94;5128611;27;20750;-65
2022/07/27 06:46:59;;;;;;;8.50;7.82;;;;;;;33.86;44.95;98978.00;5128335;27;20198;-65
2022/07/27 06:49:26;;;;;;;7.88;7.43;;;;;;;34.06;44.60;98981.44;5120802;27;20224;-66
2022/07/27 06:51:53;;;;;;;8.82;7.60;;;;;;;34.34;42.52;98972.44;5122541;27;20217;-65
2022/07/27 06:54:20;;;;;;;7.72;7.32;;;;;;;34.49;42.80;98975.66;5126232;27;20230;-65
2022/07/27 06:56:46;;;;;;;8.35;7.93;;;;;;;34.60;45.21;98972.34;5121895;27;20195;-66
2022/07/27 06:59:13;;;;;;;9.75;9.15;;;;;;;34.69;44.21;98971.13;5126344;27;20194;-65
2022/07/27 07:01:40;;;;;;;7.70;7.30;;;;;;;34.91;42.29;98969.78;5120221;27;20202;-65
2022/07/27 07:04:08;;;;;;;8.82;8.23;;;;;;;35.06;41.64;98969.50;5126436;27;20224;-65
2022/07/27 07:06:35;;;;;;;7.90;7.50;;;;;;;35.03;40.97;98968.06;5123846;27;20202;-66
2022/07/27 07:09:02;;;;;;;8.43;7.93;;;;;;;35.06;41.18;98962.31;5126392;27;20202;-65
2022/07/27 07:11:29;;;;;;;7.82;7.32;;;;;;;35.14;40.41;98962.09;5125503;27;20601;-66
2022/07/27 07:13:56;;;;;;;7.50;7.13;;;;;;;35.41;40.75;98964.59;5122473;27;20209;-66
2022/07/27 07:16:23;;;;;;;8.23;7.72;;;;;;;35.64;41.21;98955.00;5124406;27;20662;-66
2022/07/27 07:18:50;;;;;;;8.18;7.70;;;;;;;35.61;39.95;98965.28;5124375;27;20217;-66
2022/07/27 07:21:18;;;;;;;8.85;8.18;;;;;;;35.62;39.20;98956.25;5124457;27;20221;-67
2022/07/27 07:23:45;;;;;;;8.13;7.68;;;;;;;35.77;39.66;98948.72;5127949;27;20209;-67
2022/07/27 07:26:12;;;;;;;7.70;7.10;;;;;;;35.90;39.39;98950.50;5124888;27;20749;-66
2022/07/27 07:28:39;;;;;;;9.52;8.68;;;;;;;35.80;39.36;98933.09;5132275;27;20198;-66
2022/07/27 07:31:05;;;;;;;9.27;8.48;;;;;;;36.00;38.95;98946.25;5131415;27;20190;-66
2022/07/27 07:33:32;;;;;;;11.10;10.13;;;;;;;35.87;40.59;98945.59;5131144;27;20213;-67
2022/07/27 07:35:59;;;;;;;9.75;9.23;;;;;;;35.93;39.19;98942.03;5132071;27;20559;-67
2022/07/27 07:38:27;;;;;;;10.05;9.10;;;;;;;36.12;38.77;98949.88;5132197;27;20194;-67
2022/07/27 07:40:54;;;;;;;9.88;9.20;;;;;;;36.41;37.91;98943.00;5132386;27;20197;-66
2022/07/27 07:43:21;;;;;;;11.25;10.45;;;;;;;36.59;37.88;98942.19;5132875;27;20201;-66
2022/07/27 07:45:48;;;;;;;10.85;10.25;;;;;;;36.65;38.57;98941.28;5131997;27;20672;-66
2022/07/27 07:48:15;;;;;;;10.57;9.98;;;;;;;36.74;37.18;98940.75;5118644;27;20199;-67
2022/07/27 07:50:42;;;;;;;10.35;9.75;;;;;;;36.83;38.57;98939.41;5120690;27;20190;-67
2022/07/27 07:53:09;;;;;;;11.48;10.45;;;;;;;37.07;37.68;98940.31;5128232;27;20210;-66
2022/07/27 07:55:37;;;;;;;9.95;9.38;;;;;;;37.01;35.60;98935.91;5118689;27;20710;-67
2022/07/27 07:58:04;;;;;;;10.02;8.93;;;;;;;36.98;36.41;98941.66;5118723;27;20203;-67
2022/07/27 08:00:31;;;;;;;10.85;10.18;;;;;;;37.01;38.70;98940.41;5125072;27;20198;-66
2022/07/27 08:02:58;;;;;;;10.90;10.20;;;;;;;36.97;36.95;98941.88;5123382;27;20190;-66
2022/07/27 08:05:25;;;;;;;10.05;9.50;;;;;;;36.96;37.18;98946.44;5120890;27;20194;-68
2022/07/27 08:07:53;;;;;;;9.85;9.15;;;;;;;37.11;36.04;98941.50;5131646;27;20190;-67
2022/07/27 08:10:22;;;;;;;10.18;9.48;;;;;;;37.24;36.41;98943.16;5120980;27;20198;-67
2022/07/27 08:12:53;;;;;;;10.15;9.55;;;;;;;37.41;34.78;98944.16;5119738;27;20210;-66
2022/07/27 08:15:20;;;;;;;10.02;9.40;;;;;;;36.96;36.21;98938.41;5119495;27;20225;-67
2022/07/27 08:17:47;;;;;;;11.00;10.40;;;;;;;36.47;37.35;98935.94;5123987;27;20209;-67
2022/07/27 08:20:16;;;;;;;10.52;9.52;;;;;;;36.63;36.72;98943.38;5116282;27;20567;-67
2022/07/27 08:22:43;;;;;;;9.88;9.30;;;;;;;36.93;38.20;98933.53;5118393;27;20198;-66
2022/07/27 08:25:11;;;;;;;10.35;9.45;;;;;;;37.04;36.65;98929.28;5125719;27;20189;-66
2022/07/27 08:27:39;;;;;;;9.85;9.35;;;;;;;37.21;36.30;98925.72;5117119;27;20214;-67
2022/07/27 08:30:09;;;;;;;9.73;9.00;;;;;;;37.14;36.28;98927.69;5115842;27;20247;-67
2022/07/27 08:32:50;;;;;;;8.90;8.40;;;;;;;37.12;36.69;98932.47;5115935;27;20206;-68
2022/07/27 08:35:18;;;;;;;9.77;8.80;;;;;;;37.18;35.56;98931.53;5116352;27;20194;-67
2022/07/27 08:37:45;;;;;;;12.10;8.30;;;;;;;37.33;34.12;98934.59;5121156;27;20213;-69
2022/07/27 08:40:13;;;;;;;9.05;8.40;;;;;;;37.52;34.52;98929.19;5122277;27;20212;-67
2022/07/27 08:42:42;;;;;;;7.93;7.53;;;;;;;37.62;32.53;98926.75;5126181;27;20190;-67
2022/07/27 08:45:14;;;;;;;9.35;8.82;;;;;;;37.62;33.80;98922.22;5117853;27;20199;-67
2022/07/27 08:47:44;;;;;;;8.02;7.63;;;;;;;37.57;35.56;98926.63;5122472;27;20206;-67
2022/07/27 08:50:23;;;;;;;8.68;8.07;;;;;;;37.65;36.62;98927.09;5121548;27;20256;-67
2022/07/27 08:53:02;;;;;;;8.88;8.18;;;;;;;37.67;34.76;98927.69;5131267;27;20220;-67
2022/07/27 08:55:29;;;;;;;9.00;8.32;;;;;;;37.82;37.13;98929.91;5131883;27;20221;-66
2022/07/27 08:57:56;;;;;;;8.80;8.07;;;;;;;37.98;35.40;98920.38;5125521;27;20198;-67
2022/07/27 09:00:25;;;;;;;8.88;8.27;;;;;;;38.12;34.57;98917.22;5123046;27;20218;-66
2022/07/27 09:02:52;;;;;;;8.10;7.70;;;;;;;37.95;35.38;98913.63;5127756;27;20202;-67
2022/07/27 09:05:19;;;;;;;10.18;9.40;;;;;;;38.03;34.67;98902.56;5131082;27;20198;-67
2022/07/27 09:07:46;;;;;;;8.38;7.93;;;;;;;38.29;34.30;98910.06;5126274;27;20201;-67
2022/07/27 09:10:29;;;;;;;9.05;8.45;;;;;;;38.50;33.87;98915.88;5113287;28;20597;-67
2022/07/27 09:12:56;;;;;;;9.60;8.77;;;;;;;38.46;36.12;98880.72;5117681;27;20216;-67
2022/07/27 09:15:24;;;;;;;9.80;9.10;;;;;;;38.58;38.79;98908.28;5126914;27;20205;-67
2022/07/27 09:17:51;;;;;;;8.93;8.20;;;;;;;38.63;36.11;98913.75;5115477;27;20760;-67
2022/07/27 09:20:20;;;;;;;9.85;9.15;;;;;;;38.78;34.52;98905.16;5125458;27;20209;-68
2022/07/27 09:22:49;;;;;;;10.43;8.93;;;;;;;38.92;33.07;98911.09;5122570;28;20202;-67
2022/07/27 09:25:19;;;;;;;9.73;9.13;;;;;;;38.99;32.26;98899.16;5121546;28;20278;-67
2022/07/27 09:27:48;;;;;;;9.77;9.18;;;;;;;38.79;33.65;98888.03;5118888;28;20279;-67
2022/07/27 09:30:17;;;;;;;8.82;8.27;;;;;;;38.84;35.13;98894.34;5120650;27;20194;-67
2022/07/27 09:32:57;;;;;;;9.20;8.70;;;;;;;38.86;31.98;98896.78;5122770;27;20301;-67
2022/07/27 09:35:28;;;;;;;8.75;8.23;;;;;;;38.94;31.95;98893.69;5123902;27;20208;-67
2022/07/27 09:37:55;;;;;;;10.13;9.50;;;;;;;38.96;31.90;98891.63;5124308;27;20205;-67
2022/07/27 09:40:24;;;;;;;9.55;8.85;;;;;;;39.17;33.80;98890.88;5122975;27;20205;-68
2022/07/27 09:43:11;;;;;;;10.02;9.52;;;;;;;39.15;33.31;98890.34;5119463;27;20581;-67
2022/07/27 09:45:42;;;;;;;8.95;8.45;;;;;;;39.19;32.84;98885.31;5121552;27;20752;-67
2022/07/27 09:48:12;;;;;;;9.60;9.00;;;;;;;39.17;32.43;98888.22;5121593;27;20199;-66
2022/07/27 09:50:41;;;;;;;8.40;7.97;;;;;;;39.14;30.87;98888.69;5124255;27;20198;-67
2022/07/27 09:53:21;;;;;;;8.52;8.10;;;;;;;39.23;30.58;98879.19;5121372;27;20225;-67
2022/07/27 09:55:58;;;;;;;8.32;7.93;;;;;;;39.15;30.65;98860.84;5122558;27;20222;-67
2022/07/27 09:58:49;;;;;;;9.60;9.00;;;;;;;38.76;31.46;98875.13;5131749;27;20221;-66
2022/07/27 10:01:19;;;;;;;8.70;8.27;;;;;;;38.59;31.94;98874.25;5120298;27;20217;-67
2022/07/27 10:03:49;;;;;;;8.55;8.00;;;;;;;38.66;31.12;98875.75;5128230;27;20670;-67
2022/07/27 10:06:17;;;;;;;8.77;8.27;;;;;;;38.88;33.49;98867.88;5123916;27;20210;-67
2022/07/27 10:08:46;;;;;;;10.23;9.00;;;;;;;38.90;36.36;98864.97;5120844;27;20620;-67
2022/07/27 10:11:15;;;;;;;8.13;7.53;;;;;;;39.01;33.61;98862.19;5126450;27;20202;-67
2022/07/27 10:13:42;;;;;;;7.45;7.15;;;;;;;39.24;32.69;98878.16;5125893;27;20225;-66
2022/07/27 10:16:13;;;;;;;8.73;8.32;;;;;;;39.40;31.71;98871.16;5128367;27;20210;-66
2022/07/27 10:18:58;;;;;;;9.15;8.40;;;;;;;39.49;30.85;98867.00;5124574;27;20559;-66
2022/07/27 10:21:26;;;;;;;8.65;8.13;;;;;;;39.46;30.60;98869.38;5128038;27;20205;-66
2022/07/27 10:23:56;;;;;;;9.57;7.97;;;;;;;39.26;29.96;98849.22;5123663;27;20282;-66
2022/07/27 10:26:30;;;;;;;8.52;7.95;;;;;;;39.31;32.23;98870.78;5123340;27;20290;-66
2022/07/27 10:28:59;;;;;;;7.95;7.55;;;;;;;39.17;30.46;98853.34;5121385;27;20654;-67
2022/07/27 10:31:28;;;;;;;8.63;8.13;;;;;;;39.24;32.13;98866.63;5123973;27;20669;-66
2022/07/27 10:33:59;;;;;;;8.38;7.97;;;;;;;39.44;29.39;98860.78;5122187;27;20224;-66
2022/07/27 10:36:54;;;;;;;7.80;7.45;;;;;;;39.54;28.73;98861.75;5118404;27;20210;-67
2022/07/27 10:39:35;;;;;;;8.85;8.35;;;;;;;39.61;28.64;98846.28;5122565;27;20213;-67
2022/07/27 10:42:23;;;;;;;8.02;7.63;;;;;;;39.70;31.07;98854.75;5118009;27;20428;-66
2022/07/27 10:44:55;;;;;;;7.95;7.40;;;;;;;39.68;29.76;98851.50;5133086;27;20222;-67
2022/07/27 10:47:32;;;;;;;9.15;8.65;;;;;;;39.74;29.09;98853.19;5133950;27;20205;-66
2022/07/27 10:50:22;;;;;;;8.32;7.68;;;;;;;39.82;29.25;98842.03;5114353;27;20285;-66
2022/07/27 10:52:51;;;;;;;7.78;7.38;;;;;;;39.98;29.28;98841.16;5125801;27;20222;-66
2022/07/27 10:55:57;;;;;;;7.97;7.10;;;;;;;39.80;28.28;98838.78;5113616;27;20226;-67
2022/07/27 10:58:47;;;;;;;7.80;7.40;;;;;;;39.50;28.84;98827.59;5134021;27;20194;-67
2022/07/27 11:01:16;;;;;;;8.43;8.02;;;;;;;39.57;29.16;98844.31;5131570;27;20247;-66
2022/07/27 11:03:48;;;;;;;7.18;6.88;;;;;;;39.61;29.07;98814.09;5133909;27;20190;-66
2022/07/27 11:06:28;;;;;;;7.70;7.25;;;;;;;39.65;28.16;98835.84;5134177;27;20189;-66
2022/07/27 11:08:57;;;;;;;8.55;8.00;;;;;;;39.78;28.20;98832.81;5123629;27;20299;-66
2022/07/27 11:11:25;;;;;;;6.85;6.55;;;;;;;40.01;27.27;98827.22;5125346;27;20198;-66
2022/07/27 11:13:54;;;;;;;7.38;6.80;;;;;;;39.87;28.77;98808.00;5123221;27;20233;-65
2022/07/27 11:16:22;;;;;;;7.68;7.28;;;;;;;39.76;28.16;98826.91;5123531;27;20247;-66
2022/07/27 11:19:00;;;;;;;6.75;6.45;;;;;;;39.59;27.44;98826.09;5124215;27;20217;-66
2022/07/27 11:21:30;;;;;;;7.03;6.68;;;;;;;39.29;27.37;98795.09;5118339;27;20198;-66
2022/07/27 11:24:02;;;;;;;7.13;6.72;;;;;;;39.50;28.25;98817.66;5131354;27;20250;-66
2022/07/27 11:26:31;;;;;;;6.72;6.43;;;;;;;39.56;27.94;98821.22;5124389;27;20663;-67
2022/07/27 11:28:57;;;;;;;6.78;6.47;;;;;;;39.65;27.47;98815.19;5119117;27;20194;-66
2022/07/27 11:31:24;;;;;;;6.75;6.45;;;;;;;39.80;27.95;98812.75;5121198;27;20198;-67
2022/07/27 11:33:59;;;;;;;7.30;6.90;;;;;;;39.39;26.65;98809.75;5131311;27;20206;-66
2022/07/27 11:36:38;;;;;;;7.35;6.93;;;;;;;39.29;27.49;98794.31;5129339;27;20201;-65
2022/07/27 11:39:07;;;;;;;7.80;7.40;;;;;;;39.00;28.39;98804.25;5120219;27;20270;-67
2022/07/27 11:41:36;;;;;;;7.43;7.07;;;;;;;39.18;28.11;98801.34;5121948;27;20262;-67